sensor_id;sensor_type;location;lat;lon;timestamp;temperature;humidity
59505;DHT22;45321;53.200;5.814;2023-02-28T00:01:05;7.90;71.70
59505;DHT22;45321;53.200;5.814;2023-02-28T00:03:31;7.90;71.70
59505;DHT22;45321;53.200;5.814;2023-02-28T00:06:02;7.90;72.20
59505;DHT22;45321;53.200;5.814;2023-02-28T00:08:28;7.90;72.10
59505;DHT22;45321;53.200;5.814;2023-02-28T00:10:54;7.90;72.10
59505;DHT22;45321;53.200;5.814;2023-02-28T00:13:19;7.90;72.00
59505;DHT22;45321;53.200;5.814;2023-02-28T00:15:45;7.90;72.00
59505;DHT22;45321;53.200;5.814;2023-02-28T00:18:11;7.90;72.20
59505;DHT22;45321;53.200;5.814;2023-02-28T00:20:40;7.90;72.10
59505;DHT22;45321;53.200;5.814;2023-02-28T00:23:06;7.90;72.00
59505;DHT22;45321;53.200;5.814;2023-02-28T00:25:32;7.90;72.60
59505;DHT22;45321;53.200;5.814;2023-02-28T00:27:57;7.90;72.10
59505;DHT22;45321;53.200;5.814;2023-02-28T00:30:23;7.90;72.40
59505;DHT22;45321;53.200;5.814;2023-02-28T00:32:50;7.90;72.50
59505;DHT22;45321;53.200;5.814;2023-02-28T00:35:16;7.90;72.40
59505;DHT22;45321;53.200;5.814;2023-02-28T00:37:42;7.90;72.90
59505;DHT22;45321;53.200;5.814;2023-02-28T00:40:09;7.80;73.20
59505;DHT22;45321;53.200;5.814;2023-02-28T00:42:35;7.80;73.10
59505;DHT22;45321;53.200;5.814;2023-02-28T00:45:02;7.80;73.00
59505;DHT22;45321;53.200;5.814;2023-02-28T00:47:29;7.80;73.00
59505;DHT22;45321;53.200;5.814;2023-02-28T00:49:55;7.90;73.20
59505;DHT22;45321;53.200;5.814;2023-02-28T00:52:21;7.90;73.10
59505;DHT22;45321;53.200;5.814;2023-02-28T00:54:47;7.80;73.30
59505;DHT22;45321;53.200;5.814;2023-02-28T00:57:12;7.90;73.40
59505;DHT22;45321;53.200;5.814;2023-02-28T00:59:38;7.90;73.40
59505;DHT22;45321;53.200;5.814;2023-02-28T01:02:04;7.90;73.30
59505;DHT22;45321;53.200;5.814;2023-02-28T01:04:30;7.90;73.20
59505;DHT22;45321;53.200;5.814;2023-02-28T01:06:55;7.80;73.40
59505;DHT22;45321;53.200;5.814;2023-02-28T01:09:21;7.80;73.40
59505;DHT22;45321;53.200;5.814;2023-02-28T01:11:47;7.80;73.70
59505;DHT22;45321;53.200;5.814;2023-02-28T01:14:14;7.90;73.90
59505;DHT22;45321;53.200;5.814;2023-02-28T01:16:40;7.80;73.70
59505;DHT22;45321;53.200;5.814;2023-02-28T01:19:06;7.80;74.20
59505;DHT22;45321;53.200;5.814;2023-02-28T01:21:32;7.80;73.90
59505;DHT22;45321;53.200;5.814;2023-02-28T01:23:58;7.80;74.40
59505;DHT22;45321;53.200;5.814;2023-02-28T01:26:24;7.90;74.10
59505;DHT22;45321;53.200;5.814;2023-02-28T01:28:51;7.90;74.00
59505;DHT22;45321;53.200;5.814;2023-02-28T01:31:18;7.90;74.40
59505;DHT22;45321;53.200;5.814;2023-02-28T01:33:45;7.90;74.50
59505;DHT22;45321;53.200;5.814;2023-02-28T01:36:20;7.80;74.30
59505;DHT22;45321;53.200;5.814;2023-02-28T01:38:46;7.80;74.60
59505;DHT22;45321;53.200;5.814;2023-02-28T01:41:24;7.90;74.70
59505;DHT22;45321;53.200;5.814;2023-02-28T01:43:57;7.80;74.70
59505;DHT22;45321;53.200;5.814;2023-02-28T01:46:23;7.90;74.90
59505;DHT22;45321;53.200;5.814;2023-02-28T01:49:12;7.80;75.00
59505;DHT22;45321;53.200;5.814;2023-02-28T01:51:51;7.90;75.10
59505;DHT22;45321;53.200;5.814;2023-02-28T01:54:27;7.90;74.90
59505;DHT22;45321;53.200;5.814;2023-02-28T01:57:06;7.90;75.20
59505;DHT22;45321;53.200;5.814;2023-02-28T01:59:40;7.90;74.90
59505;DHT22;45321;53.200;5.814;2023-02-28T02:02:18;7.80;75.30
59505;DHT22;45321;53.200;5.814;2023-02-28T02:05:01;7.90;75.40
59505;DHT22;45321;53.200;5.814;2023-02-28T02:07:31;7.90;75.40
59505;DHT22;45321;53.200;5.814;2023-02-28T02:10:32;7.80;75.60
59505;DHT22;45321;53.200;5.814;2023-02-28T02:24:22;7.80;76.60
59505;DHT22;45321;53.200;5.814;2023-02-28T02:27:04;7.90;76.40
59505;DHT22;45321;53.200;5.814;2023-02-28T02:34:55;7.90;76.90
59505;DHT22;45321;53.200;5.814;2023-02-28T02:42:59;7.90;77.30
59505;DHT22;45321;53.200;5.814;2023-02-28T02:45:59;7.90;77.20
59505;DHT22;45321;53.200;5.814;2023-02-28T02:48:30;7.90;77.30
59505;DHT22;45321;53.200;5.814;2023-02-28T02:51:00;7.90;77.30
59505;DHT22;45321;53.200;5.814;2023-02-28T02:53:37;7.90;77.40
59505;DHT22;45321;53.200;5.814;2023-02-28T02:56:04;7.90;77.50
59505;DHT22;45321;53.200;5.814;2023-02-28T02:58:35;7.90;77.40
59505;DHT22;45321;53.200;5.814;2023-02-28T03:01:08;8.00;77.80
59505;DHT22;45321;53.200;5.814;2023-02-28T03:03:36;8.00;77.90
59505;DHT22;45321;53.200;5.814;2023-02-28T03:06:03;8.00;77.90
59505;DHT22;45321;53.200;5.814;2023-02-28T03:08:34;7.90;78.30
59505;DHT22;45321;53.200;5.814;2023-02-28T03:11:02;7.90;78.80
59505;DHT22;45321;53.200;5.814;2023-02-28T03:19:01;8.00;78.50
59505;DHT22;45321;53.200;5.814;2023-02-28T03:21:36;7.90;78.50
59505;DHT22;45321;53.200;5.814;2023-02-28T03:26:34;7.90;78.50
59505;DHT22;45321;53.200;5.814;2023-02-28T03:29:07;7.90;78.80
59505;DHT22;45321;53.200;5.814;2023-02-28T03:32:06;7.90;78.30
59505;DHT22;45321;53.200;5.814;2023-02-28T03:34:39;7.90;78.70
59505;DHT22;45321;53.200;5.814;2023-02-28T03:37:13;7.90;78.80
59505;DHT22;45321;53.200;5.814;2023-02-28T03:40:02;7.90;78.90
59505;DHT22;45321;53.200;5.814;2023-02-28T03:42:35;7.80;79.00
59505;DHT22;45321;53.200;5.814;2023-02-28T03:45:10;7.80;78.90
59505;DHT22;45321;53.200;5.814;2023-02-28T03:47:41;7.80;78.80
59505;DHT22;45321;53.200;5.814;2023-02-28T03:50:39;7.90;78.60
59505;DHT22;45321;53.200;5.814;2023-02-28T03:53:32;7.90;78.90
59505;DHT22;45321;53.200;5.814;2023-02-28T03:56:00;7.80;79.10
59505;DHT22;45321;53.200;5.814;2023-02-28T03:58:49;7.80;78.80
59505;DHT22;45321;53.200;5.814;2023-02-28T04:01:36;7.90;78.70
59505;DHT22;45321;53.200;5.814;2023-02-28T04:04:03;7.90;78.90
59505;DHT22;45321;53.200;5.814;2023-02-28T04:06:31;7.80;78.80
59505;DHT22;45321;53.200;5.814;2023-02-28T04:08:58;7.90;79.00
59505;DHT22;45321;53.200;5.814;2023-02-28T04:11:51;7.80;79.20
59505;DHT22;45321;53.200;5.814;2023-02-28T04:14:17;7.90;79.10
59505;DHT22;45321;53.200;5.814;2023-02-28T04:16:43;7.80;79.30
59505;DHT22;45321;53.200;5.814;2023-02-28T04:19:11;7.90;79.30
59505;DHT22;45321;53.200;5.814;2023-02-28T04:21:46;7.90;79.50
59505;DHT22;45321;53.200;5.814;2023-02-28T04:24:14;7.80;79.10
59505;DHT22;45321;53.200;5.814;2023-02-28T04:26:46;7.80;79.10
59505;DHT22;45321;53.200;5.814;2023-02-28T04:29:14;7.80;78.80
59505;DHT22;45321;53.200;5.814;2023-02-28T04:31:40;7.90;79.20
59505;DHT22;45321;53.200;5.814;2023-02-28T04:34:06;7.80;79.30
59505;DHT22;45321;53.200;5.814;2023-02-28T04:36:32;7.90;79.40
59505;DHT22;45321;53.200;5.814;2023-02-28T04:38:58;7.90;79.50
59505;DHT22;45321;53.200;5.814;2023-02-28T04:41:24;7.90;79.30
59505;DHT22;45321;53.200;5.814;2023-02-28T04:43:53;7.90;79.40
59505;DHT22;45321;53.200;5.814;2023-02-28T04:46:19;7.90;79.50
59505;DHT22;45321;53.200;5.814;2023-02-28T04:48:45;7.90;79.20
59505;DHT22;45321;53.200;5.814;2023-02-28T04:51:13;7.80;79.60
59505;DHT22;45321;53.200;5.814;2023-02-28T04:53:40;7.80;79.60
59505;DHT22;45321;53.200;5.814;2023-02-28T04:56:07;7.80;79.70
59505;DHT22;45321;53.200;5.814;2023-02-28T04:58:33;7.90;79.50
59505;DHT22;45321;53.200;5.814;2023-02-28T05:01:05;7.90;79.70
59505;DHT22;45321;53.200;5.814;2023-02-28T05:03:41;7.80;79.70
59505;DHT22;45321;53.200;5.814;2023-02-28T05:06:08;7.80;79.90
59505;DHT22;45321;53.200;5.814;2023-02-28T05:08:34;7.80;80.00
59505;DHT22;45321;53.200;5.814;2023-02-28T05:11:01;7.80;80.10
59505;DHT22;45321;53.200;5.814;2023-02-28T05:13:27;7.80;80.00
59505;DHT22;45321;53.200;5.814;2023-02-28T05:15:53;7.80;80.00
59505;DHT22;45321;53.200;5.814;2023-02-28T05:18:19;7.80;79.70
59505;DHT22;45321;53.200;5.814;2023-02-28T05:20:45;7.80;79.90
59505;DHT22;45321;53.200;5.814;2023-02-28T05:23:13;7.80;80.00
59505;DHT22;45321;53.200;5.814;2023-02-28T05:25:39;7.80;80.20
59505;DHT22;45321;53.200;5.814;2023-02-28T05:28:05;7.80;80.20
59505;DHT22;45321;53.200;5.814;2023-02-28T05:30:31;7.80;80.10
59505;DHT22;45321;53.200;5.814;2023-02-28T05:32:58;7.80;80.20
59505;DHT22;45321;53.200;5.814;2023-02-28T05:35:24;7.80;80.30
59505;DHT22;45321;53.200;5.814;2023-02-28T05:37:50;7.80;80.30
59505;DHT22;45321;53.200;5.814;2023-02-28T05:40:16;7.90;80.40
59505;DHT22;45321;53.200;5.814;2023-02-28T05:42:42;7.90;80.20
59505;DHT22;45321;53.200;5.814;2023-02-28T05:45:09;7.90;80.20
59505;DHT22;45321;53.200;5.814;2023-02-28T05:47:35;7.90;80.30
59505;DHT22;45321;53.200;5.814;2023-02-28T05:50:02;7.90;80.50
59505;DHT22;45321;53.200;5.814;2023-02-28T05:52:28;7.90;80.70
59505;DHT22;45321;53.200;5.814;2023-02-28T05:54:55;7.90;80.80
59505;DHT22;45321;53.200;5.814;2023-02-28T05:57:21;7.80;81.10
59505;DHT22;45321;53.200;5.814;2023-02-28T05:59:47;7.80;81.10
59505;DHT22;45321;53.200;5.814;2023-02-28T06:02:15;7.90;81.30
59505;DHT22;45321;53.200;5.814;2023-02-28T06:04:41;7.80;81.20
59505;DHT22;45321;53.200;5.814;2023-02-28T06:07:07;7.90;81.00
59505;DHT22;45321;53.200;5.814;2023-02-28T06:09:33;7.90;81.50
59505;DHT22;45321;53.200;5.814;2023-02-28T06:12:00;7.90;81.40
59505;DHT22;45321;53.200;5.814;2023-02-28T06:14:28;7.80;81.60
59505;DHT22;45321;53.200;5.814;2023-02-28T06:16:54;7.80;81.80
59505;DHT22;45321;53.200;5.814;2023-02-28T06:19:20;7.70;81.10
59505;DHT22;45321;53.200;5.814;2023-02-28T06:21:50;7.40;81.00
59505;DHT22;45321;53.200;5.814;2023-02-28T06:24:18;7.20;80.90
59505;DHT22;45321;53.200;5.814;2023-02-28T06:26:45;6.90;81.40
59505;DHT22;45321;53.200;5.814;2023-02-28T06:29:11;6.80;81.80
59505;DHT22;45321;53.200;5.814;2023-02-28T06:31:37;6.70;81.90
59505;DHT22;45321;53.200;5.814;2023-02-28T06:34:04;6.60;81.40
59505;DHT22;45321;53.200;5.814;2023-02-28T06:36:30;6.50;80.90
59505;DHT22;45321;53.200;5.814;2023-02-28T06:38:56;6.40;80.80
59505;DHT22;45321;53.200;5.814;2023-02-28T06:41:24;6.40;80.70
59505;DHT22;45321;53.200;5.814;2023-02-28T06:43:53;6.30;80.30
59505;DHT22;45321;53.200;5.814;2023-02-28T06:46:19;6.30;80.00
59505;DHT22;45321;53.200;5.814;2023-02-28T06:48:45;6.30;79.90
59505;DHT22;45321;53.200;5.814;2023-02-28T06:51:20;6.30;79.90
59505;DHT22;45321;53.200;5.814;2023-02-28T06:53:48;6.30;80.70
59505;DHT22;45321;53.200;5.814;2023-02-28T06:56:15;6.20;80.70
59505;DHT22;45321;53.200;5.814;2023-02-28T06:58:41;6.10;82.00
59505;DHT22;45321;53.200;5.814;2023-02-28T07:01:08;6.00;80.90
59505;DHT22;45321;53.200;5.814;2023-02-28T07:03:35;5.90;80.60
59505;DHT22;45321;53.200;5.814;2023-02-28T07:06:01;5.90;81.00
59505;DHT22;45321;53.200;5.814;2023-02-28T07:08:27;5.80;80.80
59505;DHT22;45321;53.200;5.814;2023-02-28T07:10:56;5.70;80.50
59505;DHT22;45321;53.200;5.814;2023-02-28T07:13:22;5.60;80.00
59505;DHT22;45321;53.200;5.814;2023-02-28T07:15:59;5.50;80.80
59505;DHT22;45321;53.200;5.814;2023-02-28T07:18:28;5.40;80.40
59505;DHT22;45321;53.200;5.814;2023-02-28T07:20:54;5.30;81.50
59505;DHT22;45321;53.200;5.814;2023-02-28T07:23:21;5.30;81.30
59505;DHT22;45321;53.200;5.814;2023-02-28T07:25:46;5.30;82.10
59505;DHT22;45321;53.200;5.814;2023-02-28T07:28:13;5.10;82.60
59505;DHT22;45321;53.200;5.814;2023-02-28T07:30:40;5.10;83.20
59505;DHT22;45321;53.200;5.814;2023-02-28T07:33:05;5.10;82.60
59505;DHT22;45321;53.200;5.814;2023-02-28T07:35:31;5.10;83.80
59505;DHT22;45321;53.200;5.814;2023-02-28T07:37:58;5.00;82.70
59505;DHT22;45321;53.200;5.814;2023-02-28T07:40:24;5.00;84.40
59505;DHT22;45321;53.200;5.814;2023-02-28T07:42:50;5.00;84.30
59505;DHT22;45321;53.200;5.814;2023-02-28T07:45:16;5.00;83.80
59505;DHT22;45321;53.200;5.814;2023-02-28T07:47:43;5.00;83.60
59505;DHT22;45321;53.200;5.814;2023-02-28T07:50:11;4.90;83.80
59505;DHT22;45321;53.200;5.814;2023-02-28T07:52:38;4.90;83.70
59505;DHT22;45321;53.200;5.814;2023-02-28T07:55:05;4.90;83.90
59505;DHT22;45321;53.200;5.814;2023-02-28T07:57:31;4.90;83.00
59505;DHT22;45321;53.200;5.814;2023-02-28T07:59:57;4.90;83.10
59505;DHT22;45321;53.200;5.814;2023-02-28T08:02:23;4.90;82.70
59505;DHT22;45321;53.200;5.814;2023-02-28T08:04:51;4.90;83.10
59505;DHT22;45321;53.200;5.814;2023-02-28T08:07:17;4.80;82.50
59505;DHT22;45321;53.200;5.814;2023-02-28T08:09:44;4.80;83.10
59505;DHT22;45321;53.200;5.814;2023-02-28T08:12:11;4.90;83.20
59505;DHT22;45321;53.200;5.814;2023-02-28T08:14:37;5.00;83.20
59505;DHT22;45321;53.200;5.814;2023-02-28T08:17:03;5.00;83.40
59505;DHT22;45321;53.200;5.814;2023-02-28T08:19:30;5.10;83.30
59505;DHT22;45321;53.200;5.814;2023-02-28T08:21:59;5.10;83.50
59505;DHT22;45321;53.200;5.814;2023-02-28T08:24:24;5.10;83.50
59505;DHT22;45321;53.200;5.814;2023-02-28T08:26:50;5.10;83.30
59505;DHT22;45321;53.200;5.814;2023-02-28T08:29:16;5.10;83.30
59505;DHT22;45321;53.200;5.814;2023-02-28T08:31:42;5.10;82.60
59505;DHT22;45321;53.200;5.814;2023-02-28T08:34:13;5.20;82.90
59505;DHT22;45321;53.200;5.814;2023-02-28T08:36:40;5.20;82.50
59505;DHT22;45321;53.200;5.814;2023-02-28T08:39:06;5.20;82.20
59505;DHT22;45321;53.200;5.814;2023-02-28T08:41:33;5.30;81.70
59505;DHT22;45321;53.200;5.814;2023-02-28T08:43:59;5.30;82.30
59505;DHT22;45321;53.200;5.814;2023-02-28T08:46:26;5.30;83.90
59505;DHT22;45321;53.200;5.814;2023-02-28T08:48:53;5.30;83.20
59505;DHT22;45321;53.200;5.814;2023-02-28T08:51:20;5.30;82.80
59505;DHT22;45321;53.200;5.814;2023-02-28T08:53:55;5.30;82.80
59505;DHT22;45321;53.200;5.814;2023-02-28T08:56:21;5.30;82.80
59505;DHT22;45321;53.200;5.814;2023-02-28T08:58:48;5.40;83.20
59505;DHT22;45321;53.200;5.814;2023-02-28T09:01:20;5.40;82.60
59505;DHT22;45321;53.200;5.814;2023-02-28T09:03:47;5.30;82.90
59505;DHT22;45321;53.200;5.814;2023-02-28T09:06:14;5.40;82.50
59505;DHT22;45321;53.200;5.814;2023-02-28T09:08:41;5.40;82.50
59505;DHT22;45321;53.200;5.814;2023-02-28T09:11:07;5.50;82.40
59505;DHT22;45321;53.200;5.814;2023-02-28T09:13:40;5.60;82.10
59505;DHT22;45321;53.200;5.814;2023-02-28T09:16:08;5.60;81.30
59505;DHT22;45321;53.200;5.814;2023-02-28T09:18:35;5.60;81.20
59505;DHT22;45321;53.200;5.814;2023-02-28T09:21:05;5.50;81.50
59505;DHT22;45321;53.200;5.814;2023-02-28T09:23:31;5.60;81.80
59505;DHT22;45321;53.200;5.814;2023-02-28T09:25:57;5.70;81.20
59505;DHT22;45321;53.200;5.814;2023-02-28T09:28:31;5.70;81.40
59505;DHT22;45321;53.200;5.814;2023-02-28T09:30:57;5.80;80.80
59505;DHT22;45321;53.200;5.814;2023-02-28T09:33:25;5.80;80.80
59505;DHT22;45321;53.200;5.814;2023-02-28T09:35:59;5.80;81.60
59505;DHT22;45321;53.200;5.814;2023-02-28T09:38:28;5.90;81.50
59505;DHT22;45321;53.200;5.814;2023-02-28T09:41:18;6.10;81.40
59505;DHT22;45321;53.200;5.814;2023-02-28T09:43:50;6.10;81.70
59505;DHT22;45321;53.200;5.814;2023-02-28T09:48:52;6.40;80.60
59505;DHT22;45321;53.200;5.814;2023-02-28T09:51:32;6.40;80.20
59505;DHT22;45321;53.200;5.814;2023-02-28T09:54:00;6.40;80.00
59505;DHT22;45321;53.200;5.814;2023-02-28T09:56:33;6.40;79.90
59505;DHT22;45321;53.200;5.814;2023-02-28T10:04:40;6.40;79.50
59505;DHT22;45321;53.200;5.814;2023-02-28T10:13:17;6.70;79.30
59505;DHT22;45321;53.200;5.814;2023-02-28T10:15:47;6.70;78.30
59505;DHT22;45321;53.200;5.814;2023-02-28T10:18:22;6.80;78.20
59505;DHT22;45321;53.200;5.814;2023-02-28T10:20:50;6.80;77.80
59505;DHT22;45321;53.200;5.814;2023-02-28T10:23:28;6.90;77.50
59505;DHT22;45321;53.200;5.814;2023-02-28T10:26:05;6.90;77.20
59505;DHT22;45321;53.200;5.814;2023-02-28T10:28:34;7.00;76.40
59505;DHT22;45321;53.200;5.814;2023-02-28T10:31:00;7.10;77.00
59505;DHT22;45321;53.200;5.814;2023-02-28T10:33:30;7.20;76.60
59505;DHT22;45321;53.200;5.814;2023-02-28T10:35:56;7.30;75.40
59505;DHT22;45321;53.200;5.814;2023-02-28T10:38:31;7.40;75.70
59505;DHT22;45321;53.200;5.814;2023-02-28T10:41:09;7.60;75.70
59505;DHT22;45321;53.200;5.814;2023-02-28T10:43:36;7.80;75.30
59505;DHT22;45321;53.200;5.814;2023-02-28T10:48:50;8.00;72.20
59505;DHT22;45321;53.200;5.814;2023-02-28T10:51:23;8.20;71.90
59505;DHT22;45321;53.200;5.814;2023-02-28T10:53:53;8.30;71.70
59505;DHT22;45321;53.200;5.814;2023-02-28T10:56:24;8.30;69.50
59505;DHT22;45321;53.200;5.814;2023-02-28T11:01:41;8.40;69.60
59505;DHT22;45321;53.200;5.814;2023-02-28T11:07:22;8.50;69.50
59505;DHT22;45321;53.200;5.814;2023-02-28T11:09:53;8.60;68.10
59505;DHT22;45321;53.200;5.814;2023-02-28T11:12:23;8.60;66.50
59505;DHT22;45321;53.200;5.814;2023-02-28T11:14:57;8.60;66.20
59505;DHT22;45321;53.200;5.814;2023-02-28T11:17:30;8.60;66.70
59505;DHT22;45321;53.200;5.814;2023-02-28T11:19:59;8.80;67.10
59505;DHT22;45321;53.200;5.814;2023-02-28T11:22:31;9.00;67.00
59505;DHT22;45321;53.200;5.814;2023-02-28T11:27:57;9.90;63.90
59505;DHT22;45321;53.200;5.814;2023-02-28T11:30:29;10.20;60.70
59505;DHT22;45321;53.200;5.814;2023-02-28T11:32:55;10.30;59.70
59505;DHT22;45321;53.200;5.814;2023-02-28T11:35:36;10.60;59.90
59505;DHT22;45321;53.200;5.814;2023-02-28T11:38:07;10.90;57.90
59505;DHT22;45321;53.200;5.814;2023-02-28T11:43:17;11.50;57.70
59505;DHT22;45321;53.200;5.814;2023-02-28T11:52:05;11.30;54.30
59505;DHT22;45321;53.200;5.814;2023-02-28T11:55:01;11.20;52.50
59505;DHT22;45321;53.200;5.814;2023-02-28T12:06:09;12.70;52.00
59505;DHT22;45321;53.200;5.814;2023-02-28T12:11:52;13.40;50.30
59505;DHT22;45321;53.200;5.814;2023-02-28T12:23:01;14.50;46.70
59505;DHT22;45321;53.200;5.814;2023-02-28T12:28:25;15.00;42.70
59505;DHT22;45321;53.200;5.814;2023-02-28T12:31:13;15.00;44.40
59505;DHT22;45321;53.200;5.814;2023-02-28T12:33:46;15.30;40.90
59505;DHT22;45321;53.200;5.814;2023-02-28T12:36:17;15.20;41.50
59505;DHT22;45321;53.200;5.814;2023-02-28T12:41:15;15.10;43.40
59505;DHT22;45321;53.200;5.814;2023-02-28T12:43:46;15.10;43.50
59505;DHT22;45321;53.200;5.814;2023-02-28T12:49:16;15.80;42.30
59505;DHT22;45321;53.200;5.814;2023-02-28T12:51:44;16.10;41.80
59505;DHT22;45321;53.200;5.814;2023-02-28T12:54:32;16.20;42.30
59505;DHT22;45321;53.200;5.814;2023-02-28T13:00:00;16.50;41.50
59505;DHT22;45321;53.200;5.814;2023-02-28T13:05:25;16.40;39.80
59505;DHT22;45321;53.200;5.814;2023-02-28T13:10:53;16.80;39.00
59505;DHT22;45321;53.200;5.814;2023-02-28T13:13:24;17.20;39.00
59505;DHT22;45321;53.200;5.814;2023-02-28T13:16:05;17.70;38.70
59505;DHT22;45321;53.200;5.814;2023-02-28T13:18:38;18.00;36.90
59505;DHT22;45321;53.200;5.814;2023-02-28T13:21:09;18.20;36.00
59505;DHT22;45321;53.200;5.814;2023-02-28T13:26:11;18.30;35.30
59505;DHT22;45321;53.200;5.814;2023-02-28T13:29:04;18.10;35.60
59505;DHT22;45321;53.200;5.814;2023-02-28T13:42:48;17.70;38.00
59505;DHT22;45321;53.200;5.814;2023-02-28T13:45:26;17.90;34.60
59505;DHT22;45321;53.200;5.814;2023-02-28T13:48:03;18.10;35.80
59505;DHT22;45321;53.200;5.814;2023-02-28T13:50:36;17.70;36.80
59505;DHT22;45321;53.200;5.814;2023-02-28T13:55:53;16.30;39.70
59505;DHT22;45321;53.200;5.814;2023-02-28T14:01:20;15.30;41.50
59505;DHT22;45321;53.200;5.814;2023-02-28T14:06:32;14.60;43.20
59505;DHT22;45321;53.200;5.814;2023-02-28T14:11:37;14.70;43.70
59505;DHT22;45321;53.200;5.814;2023-02-28T14:14:05;14.90;42.20
59505;DHT22;45321;53.200;5.814;2023-02-28T14:19:12;14.40;43.50
59505;DHT22;45321;53.200;5.814;2023-02-28T14:28:19;15.90;42.20
59505;DHT22;45321;53.200;5.814;2023-02-28T14:36:26;18.50;37.00
59505;DHT22;45321;53.200;5.814;2023-02-28T14:38:55;18.40;37.40
59505;DHT22;45321;53.200;5.814;2023-02-28T14:41:26;18.10;37.40
59505;DHT22;45321;53.200;5.814;2023-02-28T14:44:01;18.20;37.50
59505;DHT22;45321;53.200;5.814;2023-02-28T14:46:38;18.30;36.30
59505;DHT22;45321;53.200;5.814;2023-02-28T14:49:06;17.80;37.30
59505;DHT22;45321;53.200;5.814;2023-02-28T14:51:33;17.20;38.60
59505;DHT22;45321;53.200;5.814;2023-02-28T14:54:01;16.80;39.30
59505;DHT22;45321;53.200;5.814;2023-02-28T14:56:35;17.00;39.00
59505;DHT22;45321;53.200;5.814;2023-02-28T14:59:01;17.70;38.60
59505;DHT22;45321;53.200;5.814;2023-02-28T15:01:27;18.40;38.60
59505;DHT22;45321;53.200;5.814;2023-02-28T15:04:02;19.00;37.30
59505;DHT22;45321;53.200;5.814;2023-02-28T15:06:29;19.40;36.10
59505;DHT22;45321;53.200;5.814;2023-02-28T15:09:17;19.80;35.30
59505;DHT22;45321;53.200;5.814;2023-02-28T15:11:49;19.90;33.40
59505;DHT22;45321;53.200;5.814;2023-02-28T15:14:19;19.90;34.50
59505;DHT22;45321;53.200;5.814;2023-02-28T15:16:48;20.30;34.60
59505;DHT22;45321;53.200;5.814;2023-02-28T15:19:25;20.90;34.10
59505;DHT22;45321;53.200;5.814;2023-02-28T15:22:05;21.50;33.40
59505;DHT22;45321;53.200;5.814;2023-02-28T15:24:37;21.60;32.50
59505;DHT22;45321;53.200;5.814;2023-02-28T15:27:15;21.20;32.60
59505;DHT22;45321;53.200;5.814;2023-02-28T15:29:45;20.80;32.80
59505;DHT22;45321;53.200;5.814;2023-02-28T15:34:47;20.80;33.10
59505;DHT22;45321;53.200;5.814;2023-02-28T15:43:12;19.40;34.70
59505;DHT22;45321;53.200;5.814;2023-02-28T15:48:45;17.80;36.70
59505;DHT22;45321;53.200;5.814;2023-02-28T15:51:20;17.20;37.90
59505;DHT22;45321;53.200;5.814;2023-02-28T15:56:51;16.10;39.40
59505;DHT22;45321;53.200;5.814;2023-02-28T15:59:21;15.80;40.30
59505;DHT22;45321;53.200;5.814;2023-02-28T16:02:29;15.80;40.80
59505;DHT22;45321;53.200;5.814;2023-02-28T16:07:26;15.90;41.10
59505;DHT22;45321;53.200;5.814;2023-02-28T16:09:52;15.70;42.30
59505;DHT22;45321;53.200;5.814;2023-02-28T16:12:19;15.60;43.20
59505;DHT22;45321;53.200;5.814;2023-02-28T16:14:52;15.60;43.80
59505;DHT22;45321;53.200;5.814;2023-02-28T16:17:23;16.00;44.10
59505;DHT22;45321;53.200;5.814;2023-02-28T16:19:50;16.50;44.20
59505;DHT22;45321;53.200;5.814;2023-02-28T16:22:15;16.80;43.80
59505;DHT22;45321;53.200;5.814;2023-02-28T16:24:41;17.00;43.70
59505;DHT22;45321;53.200;5.814;2023-02-28T16:27:17;16.80;43.90
59505;DHT22;45321;53.200;5.814;2023-02-28T16:29:44;16.40;44.10
59505;DHT22;45321;53.200;5.814;2023-02-28T16:32:13;15.80;45.00
59505;DHT22;45321;53.200;5.814;2023-02-28T16:34:39;15.40;45.90
59505;DHT22;45321;53.200;5.814;2023-02-28T16:37:15;14.90;46.80
59505;DHT22;45321;53.200;5.814;2023-02-28T16:39:42;14.50;47.70
59505;DHT22;45321;53.200;5.814;2023-02-28T16:42:15;14.10;48.40
59505;DHT22;45321;53.200;5.814;2023-02-28T16:44:42;13.80;49.10
59505;DHT22;45321;53.200;5.814;2023-02-28T16:47:09;13.50;50.00
59505;DHT22;45321;53.200;5.814;2023-02-28T16:49:35;13.30;50.60
59505;DHT22;45321;53.200;5.814;2023-02-28T16:52:04;13.00;51.10
59505;DHT22;45321;53.200;5.814;2023-02-28T16:54:31;12.80;51.90
59505;DHT22;45321;53.200;5.814;2023-02-28T16:56:57;12.60;52.50
59505;DHT22;45321;53.200;5.814;2023-02-28T16:59:24;12.40;52.90
59505;DHT22;45321;53.200;5.814;2023-02-28T17:01:51;12.30;53.50
59505;DHT22;45321;53.200;5.814;2023-02-28T17:04:17;12.10;54.00
59505;DHT22;45321;53.200;5.814;2023-02-28T17:06:43;12.00;54.60
59505;DHT22;45321;53.200;5.814;2023-02-28T17:09:21;11.80;54.80
59505;DHT22;45321;53.200;5.814;2023-02-28T17:11:47;11.80;55.30
59505;DHT22;45321;53.200;5.814;2023-02-28T17:14:14;11.70;55.60
59505;DHT22;45321;53.200;5.814;2023-02-28T17:16:40;11.60;56.10
59505;DHT22;45321;53.200;5.814;2023-02-28T17:19:12;11.50;56.30
59505;DHT22;45321;53.200;5.814;2023-02-28T17:21:38;11.30;56.70
59505;DHT22;45321;53.200;5.814;2023-02-28T17:24:04;11.30;57.20
59505;DHT22;45321;53.200;5.814;2023-02-28T17:26:30;11.20;57.60
59505;DHT22;45321;53.200;5.814;2023-02-28T17:28:57;11.10;57.90
59505;DHT22;45321;53.200;5.814;2023-02-28T17:31:24;11.00;58.20
59505;DHT22;45321;53.200;5.814;2023-02-28T17:33:50;10.90;58.50
59505;DHT22;45321;53.200;5.814;2023-02-28T17:36:22;10.80;58.60
59505;DHT22;45321;53.200;5.814;2023-02-28T17:38:48;10.70;58.80
59505;DHT22;45321;53.200;5.814;2023-02-28T17:41:14;10.60;58.80
59505;DHT22;45321;53.200;5.814;2023-02-28T17:43:40;10.60;58.90
59505;DHT22;45321;53.200;5.814;2023-02-28T17:46:11;10.50;59.00
59505;DHT22;45321;53.200;5.814;2023-02-28T17:48:40;10.40;59.10
59505;DHT22;45321;53.200;5.814;2023-02-28T17:51:05;10.30;59.40
59505;DHT22;45321;53.200;5.814;2023-02-28T17:53:31;10.20;59.50
59505;DHT22;45321;53.200;5.814;2023-02-28T17:55:57;10.20;59.70
59505;DHT22;45321;53.200;5.814;2023-02-28T17:58:22;10.10;59.80
59505;DHT22;45321;53.200;5.814;2023-02-28T18:00:48;10.00;59.80
59505;DHT22;45321;53.200;5.814;2023-02-28T18:03:19;9.90;59.90
59505;DHT22;45321;53.200;5.814;2023-02-28T18:05:46;9.80;60.00
59505;DHT22;45321;53.200;5.814;2023-02-28T18:08:12;9.80;60.20
59505;DHT22;45321;53.200;5.814;2023-02-28T18:10:39;9.80;60.40
59505;DHT22;45321;53.200;5.814;2023-02-28T18:13:04;9.70;60.70
59505;DHT22;45321;53.200;5.814;2023-02-28T18:15:30;9.60;61.10
59505;DHT22;45321;53.200;5.814;2023-02-28T18:17:57;9.60;61.00
59505;DHT22;45321;53.200;5.814;2023-02-28T18:20:22;9.50;61.20
59505;DHT22;45321;53.200;5.814;2023-02-28T18:22:48;9.50;61.40
59505;DHT22;45321;53.200;5.814;2023-02-28T18:25:14;9.30;61.70
59505;DHT22;45321;53.200;5.814;2023-02-28T18:27:41;9.30;61.90
59505;DHT22;45321;53.200;5.814;2023-02-28T18:30:19;9.30;62.20
59505;DHT22;45321;53.200;5.814;2023-02-28T18:32:45;9.30;62.10
59505;DHT22;45321;53.200;5.814;2023-02-28T18:35:11;9.20;62.10
59505;DHT22;45321;53.200;5.814;2023-02-28T18:37:37;9.20;62.40